Buoy 13519

sailwx.info

Track history (hours):
 
Tides and Currents Weather Stations Pressure Air Temp Water Temp Dewpoint Dewpoint Depression Visibility Wind Speed Wind Dir Waves Ship Positions

Drifting buoy 13519

Last reported at 2015-Aug-31 11:00 UTC. Time now 2015-Aug-31 13:23 UTC.
Position N 22°46' W 039°52'.

Barometer 1018.2 mb
Water temperature 27.9 ° C

Date/timePositionNaut miles runAvg speedWind from/ knotsBaromVisibWave heightAir tempDewpointWater temp
2015-Aug-31 11:00N 22°46' W 039°52'1 0.3 1018.2 27.9
2015-Aug-31 08:00N 22°47' W 039°51'3 0.7 1017.6 27.7
2015-Aug-31 04:00N 22°49' W 039°52'1 1.4 1018.3 27.9
2015-Aug-31 03:00N 22°48' W 039°52'1 0.3 1018.8 28.0
2015-Aug-30 23:00N 22°49' W 039°52'2 0.1 1019.1 28.3
2015-Aug-30 08:00N 22°48' W 039°50'1 0.7 1002.6 -0.1
2015-Aug-30 07:00N 22°48' W 039°49'1 0.6 1017.8 27.4
2015-Aug-30 05:00N 22°49' W 039°50'1 1.2 1017.8 27.4
2015-Aug-30 04:00N 22°50' W 039°49'1 0.2 1018.1 27.4
2015-Aug-29 23:00N 22°51' W 039°48'1 0.1 1019.0 27.7
2015-Aug-29 12:00N 22°51' W 039°49'1 0.8 1019.6 27.2
2015-Aug-29 11:00N 22°50' W 039°49'0 0.3 1019.5 27.2
2015-Aug-29 10:00N 22°50' W 039°49'1 0.1 1019.1 27.1
2015-Aug-29 04:00N 22°50' W 039°48'3 0.2 1018.9 27.1
2015-Aug-28 17:00N 22°51' W 039°46'1 0.6 1018.2 27.3
2015-Aug-28 16:00N 22°51' W 039°46'1 0.2 1018.8 27.3
2015-Aug-28 12:00N 22°52' W 039°46'1 0.1 1019.4 27.2
2015-Aug-28 08:00N 22°51' W 039°46'1 0.5 1017.5 27.1
2015-Aug-28 07:00N 22°51' W 039°46'1 0.2 1017.2 27.1
2015-Aug-28 04:00N 22°51' W 039°46'1 0.3 1018.2 27.1
2015-Aug-27 23:00N 22°52' W 039°45'0 0.1 1018.7 27.2
2015-Aug-27 17:00N 22°51' W 039°45'0 0.3 1017.0 27.2
2015-Aug-27 16:00N 22°52' W 039°44'0 0.1 1017.4 27.2
2015-Aug-27 11:00N 22°51' W 039°44'1 0.2 1018.2 27.1
2015-Aug-27 07:00N 22°51' W 039°43'1 0.1 1016.5 27.1
2015-Aug-27 01:00N 22°51' W 039°43'1 0.2 1018.4 27.1
2015-Aug-26 18:00N 22°50' W 039°44'1 0.5 1017.0 27.3
2015-Aug-26 16:00N 22°50' W 039°43'0 0.1 1017.5 27.2
2015-Aug-26 13:00N 22°50' W 039°43'2 0.4 1018.6 27.1
2015-Aug-26 09:00N 22°48' W 039°42'0 0.1 1018.1 27.0
2015-Aug-26 06:00N 22°49' W 039°41'0 0.0 1017.7 27.0
2015-Aug-26 05:00N 22°49' W 039°41'1 0.2 1017.9 27.0
2015-Aug-25 23:00N 22°49' W 039°40'1 0.2 1018.9 27.1
2015-Aug-25 20:00N 22°49' W 039°40'3 0.4 1018.1 27.1
2015-Aug-25 11:00N 22°46' W 039°42'1 0.6 1019.1 27.0
2015-Aug-25 09:00N 22°47' W 039°40'2 0.4 1018.5 27.0
2015-Aug-25 05:00N 22°46' W 039°39'1 0.1 1018.1 27.1
2015-Aug-25 00:00N 22°46' W 039°38'2 1.9 1019.9 27.1
2015-Aug-24 23:00N 22°45' W 039°36'0 0.0 1019.6 27.1
2015-Aug-24 22:00N 22°45' W 039°36'0 0.0 1019.0 27.1
2015-Aug-24 19:00N 22°45' W 039°36'1 1.2 1017.7 27.1
2015-Aug-24 18:00N 22°46' W 039°36'1 0.1 1017.5 27.2
2015-Aug-24 12:00N 22°45' W 039°36'1 0.8 1019.4 27.0
2015-Aug-24 11:00N 22°45' W 039°36'0 0.0 1019.2 27.0
2015-Aug-24 08:00N 22°45' W 039°36'6 0.5 1017.6 27.0
2015-Aug-23 20:00N 22°39' W 039°33'2 2.1 1017.4 27.2
2015-Aug-23 19:00N 22°39' W 039°31'4 0.3 1017.1 27.2
2015-Aug-23 07:00N 22°36' W 039°28'1 0.2 1017.5 27.1
2015-Aug-23 00:00N 22°35' W 039°27'3 2.6 1018.7 27.1
2015-Aug-22 23:00N 22°33' W 039°27'1 0.3 1018.3 27.1
2015-Aug-22 20:00N 22°32' W 039°28'2 2.2 1017.2 27.2
2015-Aug-22 19:00N 22°31' W 039°25'0 0.0 1017.0 27.2
2015-Aug-22 17:00N 22°31' W 039°25'1 0.5 1016.9 27.2
2015-Aug-22 16:00N 22°30' W 039°25'4 0.8 1017.4 27.1
2015-Aug-22 11:00N 22°28' W 039°22'1 0.2 1018.2 27.0
2015-Aug-22 08:00N 22°27' W 039°22'0 0.4 1017.4 27.0
2015-Aug-22 07:00N 22°27' W 039°22'2 0.7 1017.4 27.0
2015-Aug-22 04:00N 22°27' W 039°19'0 0.0 1018.1 27.1
2015-Aug-22 03:00N 22°27' W 039°19'8 0.5 1018.5 27.1
2015-Aug-21 12:00N 22°19' W 039°19'   1019.0 27.2
Track history (hours):
 
Tides and Currents Weather Stations Pressure Air Temp Water Temp Dewpoint Dewpoint Depression Visibility Wind Speed Wind Dir Waves Ship Positions

Drifting buoy 13519

Last reported at 2015-Aug-31 11:00 UTC. Time now 2015-Aug-31 13:23 UTC.
Position N 22°46' W 039°52'.

Barometer 1018.2 mb
Water temperature 27.9 ° C

Date/timePositionNaut miles runAvg speedWind from/ knotsBaromVisibWave heightAir tempDewpointWater temp
2015-Aug-31 11:00N 22°46' W 039°52'1 0.3 1018.2 27.9
2015-Aug-31 08:00N 22°47' W 039°51'3 0.7 1017.6 27.7
2015-Aug-31 04:00N 22°49' W 039°52'1 1.4 1018.3 27.9
2015-Aug-31 03:00N 22°48' W 039°52'1 0.3 1018.8 28.0
2015-Aug-30 23:00N 22°49' W 039°52'2 0.1 1019.1 28.3
2015-Aug-30 08:00N 22°48' W 039°50'1 0.7 1002.6 -0.1
2015-Aug-30 07:00N 22°48' W 039°49'1 0.6 1017.8 27.4
2015-Aug-30 05:00N 22°49' W 039°50'1 1.2 1017.8 27.4
2015-Aug-30 04:00N 22°50' W 039°49'1 0.2 1018.1 27.4
2015-Aug-29 23:00N 22°51' W 039°48'1 0.1 1019.0 27.7
2015-Aug-29 12:00N 22°51' W 039°49'1 0.8 1019.6 27.2
2015-Aug-29 11:00N 22°50' W 039°49'0 0.3 1019.5 27.2
2015-Aug-29 10:00N 22°50' W 039°49'1 0.1 1019.1 27.1
2015-Aug-29 04:00N 22°50' W 039°48'3 0.2 1018.9 27.1
2015-Aug-28 17:00N 22°51' W 039°46'1 0.6 1018.2 27.3
2015-Aug-28 16:00N 22°51' W 039°46'1 0.2 1018.8 27.3
2015-Aug-28 12:00N 22°52' W 039°46'1 0.1 1019.4 27.2
2015-Aug-28 08:00N 22°51' W 039°46'1 0.5 1017.5 27.1
2015-Aug-28 07:00N 22°51' W 039°46'1 0.2 1017.2 27.1
2015-Aug-28 04:00N 22°51' W 039°46'1 0.3 1018.2 27.1
2015-Aug-27 23:00N 22°52' W 039°45'0 0.1 1018.7 27.2
2015-Aug-27 17:00N 22°51' W 039°45'0 0.3 1017.0 27.2
2015-Aug-27 16:00N 22°52' W 039°44'0 0.1 1017.4 27.2
2015-Aug-27 11:00N 22°51' W 039°44'1 0.2 1018.2 27.1
2015-Aug-27 07:00N 22°51' W 039°43'1 0.1 1016.5 27.1
2015-Aug-27 01:00N 22°51' W 039°43'1 0.2 1018.4 27.1
2015-Aug-26 18:00N 22°50' W 039°44'1 0.5 1017.0 27.3
2015-Aug-26 16:00N 22°50' W 039°43'0 0.1 1017.5 27.2
2015-Aug-26 13:00N 22°50' W 039°43'2 0.4 1018.6 27.1
2015-Aug-26 09:00N 22°48' W 039°42'0 0.1 1018.1 27.0
2015-Aug-26 06:00N 22°49' W 039°41'0 0.0 1017.7 27.0
2015-Aug-26 05:00N 22°49' W 039°41'1 0.2 1017.9 27.0
2015-Aug-25 23:00N 22°49' W 039°40'1 0.2 1018.9 27.1
2015-Aug-25 20:00N 22°49' W 039°40'3 0.4 1018.1 27.1
2015-Aug-25 11:00N 22°46' W 039°42'1 0.6 1019.1 27.0
2015-Aug-25 09:00N 22°47' W 039°40'2 0.4 1018.5 27.0
2015-Aug-25 05:00N 22°46' W 039°39'1 0.1 1018.1 27.1
2015-Aug-25 00:00N 22°46' W 039°38'2 1.9 1019.9 27.1
2015-Aug-24 23:00N 22°45' W 039°36'0 0.0 1019.6 27.1
2015-Aug-24 22:00N 22°45' W 039°36'0 0.0 1019.0 27.1
2015-Aug-24 19:00N 22°45' W 039°36'1 1.2 1017.7 27.1
2015-Aug-24 18:00N 22°46' W 039°36'1 0.1 1017.5 27.2
2015-Aug-24 12:00N 22°45' W 039°36'1 0.8 1019.4 27.0
2015-Aug-24 11:00N 22°45' W 039°36'0 0.0 1019.2 27.0
2015-Aug-24 08:00N 22°45' W 039°36'6 0.5 1017.6 27.0
2015-Aug-23 20:00N 22°39' W 039°33'2 2.1 1017.4 27.2
2015-Aug-23 19:00N 22°39' W 039°31'4 0.3 1017.1 27.2
2015-Aug-23 07:00N 22°36' W 039°28'1 0.2 1017.5 27.1
2015-Aug-23 00:00N 22°35' W 039°27'3 2.6 1018.7 27.1
2015-Aug-22 23:00N 22°33' W 039°27'1 0.3 1018.3 27.1
2015-Aug-22 20:00N 22°32' W 039°28'2 2.2 1017.2 27.2
2015-Aug-22 19:00N 22°31' W 039°25'0 0.0 1017.0 27.2
2015-Aug-22 17:00N 22°31' W 039°25'1 0.5 1016.9 27.2
2015-Aug-22 16:00N 22°30' W 039°25'4 0.8 1017.4 27.1
2015-Aug-22 11:00N 22°28' W 039°22'1 0.2 1018.2 27.0
2015-Aug-22 08:00N 22°27' W 039°22'0 0.4 1017.4 27.0
2015-Aug-22 07:00N 22°27' W 039°22'2 0.7 1017.4 27.0
2015-Aug-22 04:00N 22°27' W 039°19'0 0.0 1018.1 27.1
2015-Aug-22 03:00N 22°27' W 039°19'8 0.5 1018.5 27.1
2015-Aug-21 12:00N 22°19' W 039°19'   1019.0 27.2

Dump ship's entire track history